Погода Суикина неделю

Аура, Мальта

16 - 22 июля
  • 16июля
    Сегодня
    +25°
    +35°
    Ясно и безоблачно
    ВремяПогодаТемператураВлажностьДавлениеВетер, м/сВероятность осадков
    02:00Ясно и безоблачно+26°C91 %759 мм1.7 м/с1 %
    05:00Ясно и безоблачно+26°C95 %758 мм2.4 м/с1 %
    08:00Ясно и безоблачно+29°C86 %759 мм2.4 м/с1 %
    11:00Ясно и безоблачно+33°C62 %760 мм2.8 м/с1 %
    14:00Ясно и безоблачно+34°C57 %760 мм3.3 м/с1 %
    17:00Ясно и безоблачно+34°C57 %759 мм2.8 м/с1 %
    20:00Ясно и безоблачно+29°C76 %759 мм4.5 м/с1 %
    23:00Ясно и безоблачно+28°C79 %760 мм4.4 м/с1 %
  • 17июля
    Среда
    +26°
    +34°
    Ясно и безоблачно
    ВремяПогодаТемператураВлажностьДавлениеВетер, м/сВероятность осадков
    02:00Ясно и безоблачно+27°C83 %759 мм2.9 м/с1 %
    05:00Ясно и безоблачно+26°C90 %758 мм0.8 м/с1 %
    08:00Ясно и безоблачно+29°C84 %760 мм1.4 м/с1 %
    11:00Ясно и безоблачно+33°C57 %760 мм2.2 м/с1 %
    14:00Ясно и безоблачно+33°C48 %760 мм2.8 м/с1 %
    17:00Ясно и безоблачно+33°C53 %760 мм3.3 м/с1 %
    20:00Ясно и безоблачно+29°C65 %760 мм2.4 м/с1 %
    23:00Ясно и безоблачно+28°C76 %760 мм0.9 м/с1 %
  • 18июля
    Четверг
    +26°
    +35°
    Ясно и безоблачно
    ВремяПогодаТемператураВлажностьДавлениеВетер, м/сВероятность осадков
    02:00Ясно и безоблачно+27°C83 %760 мм1.4 м/с1 %
    05:00Ясно и безоблачно+26°C91 %760 мм1.9 м/с1 %
    08:00Ясно и безоблачно+30°C80 %761 мм2.1 м/с1 %
    11:00Ясно и безоблачно+33°C55 %761 мм1.4 м/с1 %
    14:00Ясно и безоблачно+35°C51 %761 мм1.0 м/с1 %
    17:00Ясно и безоблачно+34°C53 %760 мм2.9 м/с1 %
    20:00Ясно и безоблачно+30°C64 %761 мм3.4 м/с1 %
    23:00Ясно и безоблачно+29°C78 %761 мм2.4 м/с1 %
  • 19июля
    Пятница
    +25°
    +35°
    Ясно и безоблачно
    ВремяПогодаТемператураВлажностьДавлениеВетер, м/сВероятность осадков
    02:00Ясно и безоблачно+27°C76 %760 мм2.7 м/с2 %
    05:00Ясно и безоблачно+26°C87 %760 мм2.3 м/с2 %
    08:00Ясно и безоблачно+30°C85 %760 мм1.2 м/с2 %
    11:00Ясно и безоблачно+33°C59 %761 мм1.9 м/с2 %
    14:00Ясно и безоблачно+35°C47 %760 мм2.1 м/с2 %
    17:00Ясно и безоблачно+34°C55 %759 мм1.2 м/с2 %
    20:00Ясно и безоблачно+30°C62 %759 мм2.2 м/с2 %
    23:00Ясно и безоблачно+28°C73 %759 мм1.6 м/с2 %
  • 20июля
    Суббота
    +25°
    +35°
    Ясно и безоблачно
    ВремяПогодаТемператураВлажностьДавлениеВетер, м/сВероятность осадков
    02:00Ясно и безоблачно+27°C87 %758 мм2.0 м/с2 %
    05:00Ясно и безоблачно+26°C94 %758 мм2.1 м/с2 %
    08:00Ясно и безоблачно+30°C85 %758 мм1.7 м/с2 %
    11:00Ясно и безоблачно+33°C60 %758 мм0.4 м/с2 %
    14:00Ясно и безоблачно+35°C57 %758 мм1.3 м/с2 %
    17:00Ясно и безоблачно+34°C56 %757 мм3.6 м/с2 %
    20:00Ясно и безоблачно+30°C58 %757 мм3.7 м/с2 %
    23:00Ясно и безоблачно+28°C74 %757 мм3.9 м/с2 %
Мы используем cookies
Соглашаюсь